Beringovskiy, Russia
Current Conditions -  °F | °C
As of 8:36 AM on Saturday 25 Oct 2014 (Local Time) from PAGM Reporting Station
Scattered Clouds Scattered Clouds  
Wind Chill: 29°   Ceiling: Unl
Heat Index: 36°   Visibility: 10mi
Dew Point: 28°   Wind: 8mph
Humidity: 75%   Direction: 150°SSE
Pressure: 29.66"   Gusts: NA
Location:  63.05°N, 179.32°E
Report Text: PAGM 242036Z AUTO 15007KT 10SM SCT028 02/M02 A2966 RMK AO1
Loading
Personal Weather Stations






























Interactive Weather Map
Tropical Storm Tracking
New forecast layout! Learn more

10-Day Weather Forecast

Advertisements
Track Severe Weather on mobile